sensor_id;sensor_type;location;lat;lon;timestamp;P1;durP1;ratioP1;P2;durP2;ratioP2
78027;SDS011;67235;45.638;11.714;2023-07-29T00:00:39;12.40;;;8.35;;
78027;SDS011;67235;45.638;11.714;2023-07-29T00:03:05;11.60;;;8.32;;
78027;SDS011;67235;45.638;11.714;2023-07-29T00:05:31;12.87;;;8.20;;
78027;SDS011;67235;45.638;11.714;2023-07-29T00:07:57;11.20;;;8.70;;
78027;SDS011;67235;45.638;11.714;2023-07-29T00:10:23;11.88;;;8.68;;
78027;SDS011;67235;45.638;11.714;2023-07-29T00:12:49;13.37;;;8.20;;
78027;SDS011;67235;45.638;11.714;2023-07-29T00:15:15;10.45;;;7.80;;
78027;SDS011;67235;45.638;11.714;2023-07-29T00:17:40;10.57;;;6.95;;
78027;SDS011;67235;45.638;11.714;2023-07-29T00:20:06;12.70;;;7.77;;
78027;SDS011;67235;45.638;11.714;2023-07-29T00:22:33;11.70;;;7.40;;
78027;SDS011;67235;45.638;11.714;2023-07-29T00:24:59;10.00;;;7.32;;
78027;SDS011;67235;45.638;11.714;2023-07-29T00:27:25;11.23;;;7.50;;
78027;SDS011;67235;45.638;11.714;2023-07-29T00:29:51;10.90;;;7.57;;
78027;SDS011;67235;45.638;11.714;2023-07-29T00:32:17;9.35;;;7.03;;
78027;SDS011;67235;45.638;11.714;2023-07-29T00:34:43;9.55;;;7.47;;
78027;SDS011;67235;45.638;11.714;2023-07-29T00:37:09;10.63;;;7.55;;
78027;SDS011;67235;45.638;11.714;2023-07-29T00:39:36;11.25;;;8.00;;
78027;SDS011;67235;45.638;11.714;2023-07-29T00:42:02;14.15;;;8.38;;
78027;SDS011;67235;45.638;11.714;2023-07-29T00:44:29;13.10;;;8.63;;
78027;SDS011;67235;45.638;11.714;2023-07-29T00:46:56;10.55;;;8.02;;
78027;SDS011;67235;45.638;11.714;2023-07-29T00:49:23;11.93;;;8.45;;
78027;SDS011;67235;45.638;11.714;2023-07-29T00:51:50;12.00;;;8.73;;
78027;SDS011;67235;45.638;11.714;2023-07-29T00:54:16;12.35;;;9.27;;
78027;SDS011;67235;45.638;11.714;2023-07-29T00:56:42;11.82;;;9.65;;
78027;SDS011;67235;45.638;11.714;2023-07-29T00:59:08;13.80;;;9.95;;
78027;SDS011;67235;45.638;11.714;2023-07-29T01:01:33;13.38;;;10.15;;
78027;SDS011;67235;45.638;11.714;2023-07-29T01:04:00;13.03;;;10.73;;
78027;SDS011;67235;45.638;11.714;2023-07-29T01:06:50;13.95;;;10.07;;
78027;SDS011;67235;45.638;11.714;2023-07-29T01:15:08;13.40;;;10.23;;
78027;SDS011;67235;45.638;11.714;2023-07-29T01:17:55;14.98;;;10.45;;
78027;SDS011;67235;45.638;11.714;2023-07-29T01:20:43;16.60;;;12.32;;
78027;SDS011;67235;45.638;11.714;2023-07-29T01:23:10;15.02;;;11.43;;
78027;SDS011;67235;45.638;11.714;2023-07-29T01:25:36;15.45;;;11.63;;
78027;SDS011;67235;45.638;11.714;2023-07-29T01:28:02;18.13;;;12.40;;
78027;SDS011;67235;45.638;11.714;2023-07-29T01:30:30;15.57;;;12.25;;
78027;SDS011;67235;45.638;11.714;2023-07-29T01:33:09;14.65;;;11.10;;
78027;SDS011;67235;45.638;11.714;2023-07-29T01:35:50;16.60;;;11.13;;
78027;SDS011;67235;45.638;11.714;2023-07-29T01:38:38;13.77;;;10.55;;
78027;SDS011;67235;45.638;11.714;2023-07-29T01:41:07;13.52;;;10.50;;
78027;SDS011;67235;45.638;11.714;2023-07-29T01:43:33;16.38;;;10.77;;
78027;SDS011;67235;45.638;11.714;2023-07-29T01:46:04;14.07;;;9.95;;
78027;SDS011;67235;45.638;11.714;2023-07-29T01:48:30;13.18;;;9.07;;
78027;SDS011;67235;45.638;11.714;2023-07-29T01:50:57;12.93;;;9.93;;
78027;SDS011;67235;45.638;11.714;2023-07-29T01:53:23;13.93;;;10.88;;
78027;SDS011;67235;45.638;11.714;2023-07-29T01:55:49;14.32;;;12.13;;
78027;SDS011;67235;45.638;11.714;2023-07-29T01:58:14;16.02;;;12.80;;
78027;SDS011;67235;45.638;11.714;2023-07-29T02:00:40;15.03;;;12.67;;
78027;SDS011;67235;45.638;11.714;2023-07-29T02:03:06;18.92;;;13.15;;
78027;SDS011;67235;45.638;11.714;2023-07-29T02:05:32;17.88;;;13.15;;
78027;SDS011;67235;45.638;11.714;2023-07-29T02:07:58;16.23;;;10.93;;
78027;SDS011;67235;45.638;11.714;2023-07-29T02:10:24;14.18;;;11.15;;
78027;SDS011;67235;45.638;11.714;2023-07-29T02:12:50;16.25;;;11.60;;
78027;SDS011;67235;45.638;11.714;2023-07-29T02:15:16;15.77;;;11.87;;
78027;SDS011;67235;45.638;11.714;2023-07-29T02:17:42;15.27;;;12.23;;
78027;SDS011;67235;45.638;11.714;2023-07-29T02:20:08;17.27;;;12.85;;
78027;SDS011;67235;45.638;11.714;2023-07-29T02:22:35;14.93;;;11.63;;
78027;SDS011;67235;45.638;11.714;2023-07-29T02:25:01;16.95;;;13.30;;
78027;SDS011;67235;45.638;11.714;2023-07-29T02:27:28;16.70;;;11.73;;
78027;SDS011;67235;45.638;11.714;2023-07-29T02:29:54;16.27;;;12.30;;
78027;SDS011;67235;45.638;11.714;2023-07-29T02:32:20;15.60;;;12.05;;
78027;SDS011;67235;45.638;11.714;2023-07-29T02:34:46;13.30;;;10.80;;
78027;SDS011;67235;45.638;11.714;2023-07-29T02:37:13;14.00;;;11.98;;
78027;SDS011;67235;45.638;11.714;2023-07-29T02:39:39;16.98;;;12.00;;
78027;SDS011;67235;45.638;11.714;2023-07-29T02:42:05;16.67;;;11.50;;
78027;SDS011;67235;45.638;11.714;2023-07-29T02:44:31;17.17;;;11.80;;
78027;SDS011;67235;45.638;11.714;2023-07-29T02:46:57;13.55;;;11.07;;
78027;SDS011;67235;45.638;11.714;2023-07-29T02:49:23;13.63;;;10.93;;
78027;SDS011;67235;45.638;11.714;2023-07-29T02:51:49;15.57;;;11.37;;
78027;SDS011;67235;45.638;11.714;2023-07-29T02:54:15;14.55;;;10.73;;
78027;SDS011;67235;45.638;11.714;2023-07-29T02:56:41;14.25;;;10.63;;
78027;SDS011;67235;45.638;11.714;2023-07-29T02:59:06;15.23;;;11.43;;
78027;SDS011;67235;45.638;11.714;2023-07-29T03:01:32;14.35;;;10.13;;
78027;SDS011;67235;45.638;11.714;2023-07-29T03:03:58;14.38;;;10.13;;
78027;SDS011;67235;45.638;11.714;2023-07-29T03:06:24;14.43;;;9.73;;
78027;SDS011;67235;45.638;11.714;2023-07-29T03:08:50;14.23;;;9.27;;
78027;SDS011;67235;45.638;11.714;2023-07-29T03:11:16;12.30;;;8.70;;
78027;SDS011;67235;45.638;11.714;2023-07-29T03:13:42;11.85;;;8.20;;
78027;SDS011;67235;45.638;11.714;2023-07-29T03:18:39;15.55;;;8.15;;
78027;SDS011;67235;45.638;11.714;2023-07-29T03:21:06;12.70;;;8.50;;
78027;SDS011;67235;45.638;11.714;2023-07-29T03:23:32;11.87;;;8.57;;
78027;SDS011;67235;45.638;11.714;2023-07-29T03:25:59;12.77;;;8.57;;
78027;SDS011;67235;45.638;11.714;2023-07-29T03:28:26;15.35;;;7.88;;
78027;SDS011;67235;45.638;11.714;2023-07-29T03:30:53;12.63;;;7.95;;
78027;SDS011;67235;45.638;11.714;2023-07-29T03:33:19;11.68;;;8.30;;
78027;SDS011;67235;45.638;11.714;2023-07-29T03:35:45;10.10;;;7.67;;
78027;SDS011;67235;45.638;11.714;2023-07-29T03:38:12;11.57;;;7.95;;
78027;SDS011;67235;45.638;11.714;2023-07-29T03:40:38;13.40;;;8.00;;
78027;SDS011;67235;45.638;11.714;2023-07-29T03:43:05;10.80;;;7.68;;
78027;SDS011;67235;45.638;11.714;2023-07-29T03:45:31;10.98;;;8.02;;
78027;SDS011;67235;45.638;11.714;2023-07-29T03:47:58;12.50;;;8.52;;
78027;SDS011;67235;45.638;11.714;2023-07-29T03:50:26;11.18;;;8.32;;
78027;SDS011;67235;45.638;11.714;2023-07-29T03:52:52;11.85;;;8.73;;
78027;SDS011;67235;45.638;11.714;2023-07-29T03:55:18;13.50;;;8.35;;
78027;SDS011;67235;45.638;11.714;2023-07-29T03:57:44;10.80;;;7.67;;
78027;SDS011;67235;45.638;11.714;2023-07-29T04:00:10;10.40;;;7.95;;
78027;SDS011;67235;45.638;11.714;2023-07-29T04:02:36;11.95;;;8.55;;
78027;SDS011;67235;45.638;11.714;2023-07-29T04:05:03;10.75;;;7.63;;
78027;SDS011;67235;45.638;11.714;2023-07-29T04:07:29;11.70;;;7.70;;
78027;SDS011;67235;45.638;11.714;2023-07-29T04:09:57;11.90;;;8.70;;
78027;SDS011;67235;45.638;11.714;2023-07-29T04:12:23;13.00;;;8.20;;
78027;SDS011;67235;45.638;11.714;2023-07-29T04:14:49;12.05;;;8.05;;
78027;SDS011;67235;45.638;11.714;2023-07-29T04:17:15;13.90;;;8.50;;
78027;SDS011;67235;45.638;11.714;2023-07-29T04:19:41;11.77;;;8.10;;
78027;SDS011;67235;45.638;11.714;2023-07-29T04:22:09;11.07;;;8.50;;
78027;SDS011;67235;45.638;11.714;2023-07-29T04:24:37;11.55;;;7.50;;
78027;SDS011;67235;45.638;11.714;2023-07-29T04:27:04;10.35;;;7.63;;
78027;SDS011;67235;45.638;11.714;2023-07-29T04:29:35;11.77;;;7.70;;
78027;SDS011;67235;45.638;11.714;2023-07-29T04:32:02;12.43;;;7.72;;
78027;SDS011;67235;45.638;11.714;2023-07-29T04:34:35;8.70;;;7.43;;
78027;SDS011;67235;45.638;11.714;2023-07-29T04:37:10;11.32;;;7.25;;
78027;SDS011;67235;45.638;11.714;2023-07-29T04:39:40;9.85;;;7.00;;
78027;SDS011;67235;45.638;11.714;2023-07-29T04:42:12;10.63;;;7.70;;
78027;SDS011;67235;45.638;11.714;2023-07-29T04:44:39;11.20;;;6.78;;
78027;SDS011;67235;45.638;11.714;2023-07-29T04:47:09;12.85;;;7.13;;
78027;SDS011;67235;45.638;11.714;2023-07-29T04:49:36;9.32;;;6.90;;
78027;SDS011;67235;45.638;11.714;2023-07-29T04:52:10;10.55;;;6.95;;
78027;SDS011;67235;45.638;11.714;2023-07-29T04:54:41;11.43;;;6.37;;
78027;SDS011;67235;45.638;11.714;2023-07-29T04:57:10;7.45;;;5.88;;
78027;SDS011;67235;45.638;11.714;2023-07-29T04:59:43;7.10;;;5.30;;
78027;SDS011;67235;45.638;11.714;2023-07-29T05:02:09;8.02;;;5.50;;
78027;SDS011;67235;45.638;11.714;2023-07-29T05:04:38;7.38;;;5.25;;
78027;SDS011;67235;45.638;11.714;2023-07-29T05:07:05;10.17;;;5.13;;
78027;SDS011;67235;45.638;11.714;2023-07-29T05:09:33;6.68;;;4.97;;
78027;SDS011;67235;45.638;11.714;2023-07-29T05:12:04;6.70;;;4.80;;
78027;SDS011;67235;45.638;11.714;2023-07-29T05:14:35;7.22;;;4.85;;
78027;SDS011;67235;45.638;11.714;2023-07-29T05:17:03;8.70;;;5.63;;
78027;SDS011;67235;45.638;11.714;2023-07-29T05:19:30;9.17;;;5.97;;
78027;SDS011;67235;45.638;11.714;2023-07-29T05:21:59;7.80;;;5.63;;
78027;SDS011;67235;45.638;11.714;2023-07-29T05:24:26;8.38;;;5.75;;
78027;SDS011;67235;45.638;11.714;2023-07-29T05:26:53;10.43;;;5.90;;
78027;SDS011;67235;45.638;11.714;2023-07-29T05:29:20;7.47;;;5.30;;
78027;SDS011;67235;45.638;11.714;2023-07-29T05:31:49;9.55;;;5.53;;
78027;SDS011;67235;45.638;11.714;2023-07-29T05:34:18;8.98;;;4.90;;
78027;SDS011;67235;45.638;11.714;2023-07-29T05:36:43;7.23;;;4.20;;
78027;SDS011;67235;45.638;11.714;2023-07-29T05:39:09;10.05;;;4.13;;
78027;SDS011;67235;45.638;11.714;2023-07-29T05:41:37;9.27;;;4.30;;
78027;SDS011;67235;45.638;11.714;2023-07-29T05:44:06;7.63;;;4.20;;
78027;SDS011;67235;45.638;11.714;2023-07-29T05:46:32;8.90;;;4.30;;
78027;SDS011;67235;45.638;11.714;2023-07-29T05:48:58;7.55;;;4.25;;
78027;SDS011;67235;45.638;11.714;2023-07-29T05:51:24;7.05;;;3.83;;
78027;SDS011;67235;45.638;11.714;2023-07-29T05:53:50;7.17;;;3.83;;
78027;SDS011;67235;45.638;11.714;2023-07-29T05:56:16;6.15;;;3.55;;
78027;SDS011;67235;45.638;11.714;2023-07-29T05:58:42;7.65;;;3.88;;
78027;SDS011;67235;45.638;11.714;2023-07-29T06:01:07;6.33;;;4.03;;
78027;SDS011;67235;45.638;11.714;2023-07-29T06:03:33;9.32;;;3.90;;
78027;SDS011;67235;45.638;11.714;2023-07-29T06:05:59;7.82;;;3.50;;
78027;SDS011;67235;45.638;11.714;2023-07-29T06:08:25;6.47;;;3.80;;
78027;SDS011;67235;45.638;11.714;2023-07-29T06:10:53;6.55;;;3.80;;
78027;SDS011;67235;45.638;11.714;2023-07-29T06:13:19;6.50;;;3.88;;
78027;SDS011;67235;45.638;11.714;2023-07-29T06:15:45;7.17;;;4.33;;
78027;SDS011;67235;45.638;11.714;2023-07-29T06:18:11;7.10;;;3.60;;
78027;SDS011;67235;45.638;11.714;2023-07-29T06:20:46;6.32;;;3.85;;
78027;SDS011;67235;45.638;11.714;2023-07-29T06:23:31;5.93;;;3.67;;
78027;SDS011;67235;45.638;11.714;2023-07-29T06:26:00;6.38;;;3.63;;
78027;SDS011;67235;45.638;11.714;2023-07-29T06:28:29;5.83;;;3.40;;
78027;SDS011;67235;45.638;11.714;2023-07-29T06:30:55;6.38;;;3.90;;
78027;SDS011;67235;45.638;11.714;2023-07-29T06:33:21;6.88;;;3.80;;
78027;SDS011;67235;45.638;11.714;2023-07-29T06:35:47;5.93;;;3.40;;
78027;SDS011;67235;45.638;11.714;2023-07-29T06:38:13;6.07;;;3.22;;
78027;SDS011;67235;45.638;11.714;2023-07-29T06:40:39;5.45;;;3.15;;
78027;SDS011;67235;45.638;11.714;2023-07-29T06:43:05;11.23;;;4.23;;
78027;SDS011;67235;45.638;11.714;2023-07-29T06:45:30;7.57;;;3.50;;
78027;SDS011;67235;45.638;11.714;2023-07-29T06:47:56;6.78;;;3.45;;
78027;SDS011;67235;45.638;11.714;2023-07-29T06:50:22;8.10;;;3.80;;
78027;SDS011;67235;45.638;11.714;2023-07-29T06:52:48;6.00;;;3.10;;
78027;SDS011;67235;45.638;11.714;2023-07-29T06:55:14;6.68;;;3.85;;
78027;SDS011;67235;45.638;11.714;2023-07-29T06:57:40;6.47;;;3.83;;
78027;SDS011;67235;45.638;11.714;2023-07-29T07:00:06;7.45;;;3.97;;
78027;SDS011;67235;45.638;11.714;2023-07-29T07:02:34;10.05;;;4.05;;
78027;SDS011;67235;45.638;11.714;2023-07-29T07:05:00;8.43;;;3.90;;
78027;SDS011;67235;45.638;11.714;2023-07-29T07:07:26;7.80;;;4.37;;
78027;SDS011;67235;45.638;11.714;2023-07-29T07:09:51;5.88;;;3.75;;
78027;SDS011;67235;45.638;11.714;2023-07-29T07:12:17;6.20;;;3.93;;
78027;SDS011;67235;45.638;11.714;2023-07-29T07:14:43;6.17;;;3.90;;
78027;SDS011;67235;45.638;11.714;2023-07-29T07:17:09;7.90;;;4.00;;
78027;SDS011;67235;45.638;11.714;2023-07-29T07:19:35;6.32;;;3.78;;
78027;SDS011;67235;45.638;11.714;2023-07-29T07:22:07;7.53;;;3.60;;
78027;SDS011;67235;45.638;11.714;2023-07-29T07:24:34;9.63;;;4.30;;
78027;SDS011;67235;45.638;11.714;2023-07-29T07:27:00;6.50;;;4.32;;
78027;SDS011;67235;45.638;11.714;2023-07-29T07:29:25;7.18;;;3.80;;
78027;SDS011;67235;45.638;11.714;2023-07-29T07:31:52;7.40;;;4.40;;
78027;SDS011;67235;45.638;11.714;2023-07-29T07:34:21;9.05;;;3.70;;
78027;SDS011;67235;45.638;11.714;2023-07-29T07:36:48;5.82;;;3.40;;
78027;SDS011;67235;45.638;11.714;2023-07-29T07:39:14;7.85;;;4.00;;
78027;SDS011;67235;45.638;11.714;2023-07-29T07:41:41;7.73;;;4.03;;
78027;SDS011;67235;45.638;11.714;2023-07-29T07:44:07;6.47;;;3.97;;
78027;SDS011;67235;45.638;11.714;2023-07-29T07:46:33;7.38;;;4.28;;
78027;SDS011;67235;45.638;11.714;2023-07-29T07:48:59;6.82;;;4.10;;
78027;SDS011;67235;45.638;11.714;2023-07-29T07:51:25;7.23;;;4.40;;
78027;SDS011;67235;45.638;11.714;2023-07-29T07:53:51;6.93;;;4.23;;
78027;SDS011;67235;45.638;11.714;2023-07-29T07:56:17;7.35;;;4.00;;
78027;SDS011;67235;45.638;11.714;2023-07-29T07:58:43;5.68;;;3.53;;
78027;SDS011;67235;45.638;11.714;2023-07-29T08:01:09;7.67;;;3.13;;
78027;SDS011;67235;45.638;11.714;2023-07-29T08:03:36;8.25;;;3.40;;
78027;SDS011;67235;45.638;11.714;2023-07-29T08:06:06;5.70;;;3.35;;
78027;SDS011;67235;45.638;11.714;2023-07-29T08:08:34;6.28;;;3.25;;
78027;SDS011;67235;45.638;11.714;2023-07-29T08:11:04;8.82;;;3.75;;
78027;SDS011;67235;45.638;11.714;2023-07-29T08:13:30;6.47;;;3.30;;
78027;SDS011;67235;45.638;11.714;2023-07-29T08:15:58;6.25;;;3.20;;
78027;SDS011;67235;45.638;11.714;2023-07-29T08:18:27;6.63;;;3.22;;
78027;SDS011;67235;45.638;11.714;2023-07-29T08:20:58;9.25;;;3.60;;
78027;SDS011;67235;45.638;11.714;2023-07-29T08:23:35;6.15;;;3.65;;
78027;SDS011;67235;45.638;11.714;2023-07-29T08:26:08;7.20;;;3.20;;
78027;SDS011;67235;45.638;11.714;2023-07-29T08:28:40;135.77;;;27.50;;
78027;SDS011;67235;45.638;11.714;2023-07-29T08:31:10;19.95;;;6.35;;
78027;SDS011;67235;45.638;11.714;2023-07-29T08:33:44;31.17;;;7.65;;
78027;SDS011;67235;45.638;11.714;2023-07-29T08:36:15;8.57;;;4.00;;
78027;SDS011;67235;45.638;11.714;2023-07-29T08:38:46;6.33;;;3.20;;
78027;SDS011;67235;45.638;11.714;2023-07-29T08:41:14;5.68;;;2.97;;
78027;SDS011;67235;45.638;11.714;2023-07-29T08:46:23;6.18;;;2.40;;
78027;SDS011;67235;45.638;11.714;2023-07-29T08:48:50;5.05;;;2.42;;
78027;SDS011;67235;45.638;11.714;2023-07-29T08:51:17;8.80;;;2.70;;
78027;SDS011;67235;45.638;11.714;2023-07-29T08:53:44;8.07;;;2.63;;
78027;SDS011;67235;45.638;11.714;2023-07-29T08:56:11;6.78;;;2.40;;
78027;SDS011;67235;45.638;11.714;2023-07-29T08:58:37;6.05;;;2.72;;
78027;SDS011;67235;45.638;11.714;2023-07-29T09:01:05;5.85;;;2.67;;
78027;SDS011;67235;45.638;11.714;2023-07-29T09:03:31;5.93;;;2.60;;
78027;SDS011;67235;45.638;11.714;2023-07-29T09:06:00;6.97;;;3.17;;
78027;SDS011;67235;45.638;11.714;2023-07-29T09:08:37;6.60;;;2.80;;
78027;SDS011;67235;45.638;11.714;2023-07-29T09:11:03;8.13;;;3.30;;
78027;SDS011;67235;45.638;11.714;2023-07-29T09:13:29;7.13;;;3.20;;
78027;SDS011;67235;45.638;11.714;2023-07-29T09:15:55;19.95;;;6.22;;
78027;SDS011;67235;45.638;11.714;2023-07-29T09:18:22;9.45;;;4.00;;
78027;SDS011;67235;45.638;11.714;2023-07-29T09:20:50;12.57;;;4.97;;
78027;SDS011;67235;45.638;11.714;2023-07-29T09:23:17;6.88;;;3.13;;
78027;SDS011;67235;45.638;11.714;2023-07-29T09:25:43;6.67;;;3.23;;
78027;SDS011;67235;45.638;11.714;2023-07-29T09:28:11;7.22;;;3.30;;
78027;SDS011;67235;45.638;11.714;2023-07-29T09:30:39;6.57;;;3.00;;
78027;SDS011;67235;45.638;11.714;2023-07-29T09:33:06;7.07;;;2.90;;
78027;SDS011;67235;45.638;11.714;2023-07-29T09:35:32;6.95;;;2.70;;
78027;SDS011;67235;45.638;11.714;2023-07-29T09:38:00;6.60;;;3.10;;
78027;SDS011;67235;45.638;11.714;2023-07-29T09:40:39;5.50;;;2.80;;
78027;SDS011;67235;45.638;11.714;2023-07-29T09:43:15;6.03;;;2.95;;
78027;SDS011;67235;45.638;11.714;2023-07-29T09:45:42;6.80;;;3.40;;
78027;SDS011;67235;45.638;11.714;2023-07-29T09:48:11;8.25;;;3.30;;
78027;SDS011;67235;45.638;11.714;2023-07-29T09:50:37;6.83;;;3.03;;
78027;SDS011;67235;45.638;11.714;2023-07-29T09:53:03;6.30;;;3.10;;
78027;SDS011;67235;45.638;11.714;2023-07-29T09:55:32;6.72;;;3.13;;
78027;SDS011;67235;45.638;11.714;2023-07-29T09:57:59;6.93;;;2.93;;
78027;SDS011;67235;45.638;11.714;2023-07-29T10:00:29;5.80;;;3.30;;
78027;SDS011;67235;45.638;11.714;2023-07-29T10:02:56;7.15;;;3.33;;
78027;SDS011;67235;45.638;11.714;2023-07-29T10:05:25;6.85;;;3.35;;
78027;SDS011;67235;45.638;11.714;2023-07-29T10:07:52;7.43;;;3.85;;
78027;SDS011;67235;45.638;11.714;2023-07-29T10:10:19;5.30;;;3.00;;
78027;SDS011;67235;45.638;11.714;2023-07-29T10:12:46;6.93;;;2.95;;
78027;SDS011;67235;45.638;11.714;2023-07-29T10:15:12;6.63;;;2.83;;
78027;SDS011;67235;45.638;11.714;2023-07-29T10:17:39;5.75;;;2.67;;
78027;SDS011;67235;45.638;11.714;2023-07-29T10:20:07;5.65;;;3.15;;
78027;SDS011;67235;45.638;11.714;2023-07-29T10:22:39;5.83;;;3.03;;
78027;SDS011;67235;45.638;11.714;2023-07-29T10:25:10;6.18;;;3.30;;
78027;SDS011;67235;45.638;11.714;2023-07-29T10:27:47;7.32;;;3.25;;
78027;SDS011;67235;45.638;11.714;2023-07-29T10:30:17;6.90;;;3.13;;
78027;SDS011;67235;45.638;11.714;2023-07-29T10:32:43;7.77;;;3.20;;
78027;SDS011;67235;45.638;11.714;2023-07-29T10:35:13;6.93;;;3.38;;
78027;SDS011;67235;45.638;11.714;2023-07-29T10:37:39;8.02;;;3.15;;
78027;SDS011;67235;45.638;11.714;2023-07-29T10:40:07;6.25;;;3.10;;
78027;SDS011;67235;45.638;11.714;2023-07-29T10:42:36;6.07;;;3.25;;
78027;SDS011;67235;45.638;11.714;2023-07-29T10:45:20;8.37;;;3.70;;
78027;SDS011;67235;45.638;11.714;2023-07-29T10:47:47;8.85;;;3.67;;
78027;SDS011;67235;45.638;11.714;2023-07-29T10:50:17;7.60;;;3.97;;
78027;SDS011;67235;45.638;11.714;2023-07-29T10:52:46;5.72;;;3.13;;
78027;SDS011;67235;45.638;11.714;2023-07-29T10:55:36;6.28;;;3.42;;
78027;SDS011;67235;45.638;11.714;2023-07-29T10:58:10;7.63;;;3.27;;
78027;SDS011;67235;45.638;11.714;2023-07-29T11:00:39;5.22;;;3.20;;
78027;SDS011;67235;45.638;11.714;2023-07-29T11:03:07;9.05;;;3.65;;
78027;SDS011;67235;45.638;11.714;2023-07-29T11:05:43;9.02;;;3.30;;
78027;SDS011;67235;45.638;11.714;2023-07-29T11:08:36;6.35;;;3.30;;
78027;SDS011;67235;45.638;11.714;2023-07-29T11:11:08;8.43;;;3.10;;
78027;SDS011;67235;45.638;11.714;2023-07-29T11:13:37;7.93;;;3.60;;
78027;SDS011;67235;45.638;11.714;2023-07-29T11:16:04;8.65;;;3.60;;
78027;SDS011;67235;45.638;11.714;2023-07-29T11:18:32;6.53;;;3.45;;
78027;SDS011;67235;45.638;11.714;2023-07-29T11:21:02;7.28;;;3.35;;
78027;SDS011;67235;45.638;11.714;2023-07-29T11:23:32;8.27;;;3.47;;
78027;SDS011;67235;45.638;11.714;2023-07-29T11:26:00;8.25;;;3.83;;
78027;SDS011;67235;45.638;11.714;2023-07-29T11:28:26;8.38;;;3.75;;
78027;SDS011;67235;45.638;11.714;2023-07-29T11:30:56;9.00;;;4.05;;
78027;SDS011;67235;45.638;11.714;2023-07-29T11:33:24;7.97;;;3.60;;
78027;SDS011;67235;45.638;11.714;2023-07-29T11:35:51;8.37;;;3.70;;
78027;SDS011;67235;45.638;11.714;2023-07-29T11:38:18;7.28;;;3.97;;
78027;SDS011;67235;45.638;11.714;2023-07-29T11:40:55;8.18;;;4.00;;
78027;SDS011;67235;45.638;11.714;2023-07-29T11:43:24;8.50;;;3.95;;
78027;SDS011;67235;45.638;11.714;2023-07-29T11:45:55;8.57;;;4.07;;
78027;SDS011;67235;45.638;11.714;2023-07-29T11:48:30;9.50;;;4.00;;
78027;SDS011;67235;45.638;11.714;2023-07-29T11:50:58;8.82;;;3.63;;
78027;SDS011;67235;45.638;11.714;2023-07-29T11:53:28;8.02;;;4.10;;
78027;SDS011;67235;45.638;11.714;2023-07-29T11:55:59;7.47;;;3.75;;
78027;SDS011;67235;45.638;11.714;2023-07-29T11:58:34;8.65;;;4.03;;
78027;SDS011;67235;45.638;11.714;2023-07-29T12:01:00;7.67;;;3.63;;
78027;SDS011;67235;45.638;11.714;2023-07-29T12:03:28;6.80;;;3.50;;
78027;SDS011;67235;45.638;11.714;2023-07-29T12:06:00;7.38;;;3.88;;
78027;SDS011;67235;45.638;11.714;2023-07-29T12:08:30;6.97;;;3.90;;
78027;SDS011;67235;45.638;11.714;2023-07-29T12:10:57;9.27;;;3.92;;
78027;SDS011;67235;45.638;11.714;2023-07-29T12:13:24;5.87;;;3.70;;
78027;SDS011;67235;45.638;11.714;2023-07-29T12:15:50;10.40;;;3.55;;
78027;SDS011;67235;45.638;11.714;2023-07-29T12:18:16;7.13;;;3.65;;
78027;SDS011;67235;45.638;11.714;2023-07-29T12:20:42;7.85;;;3.65;;
78027;SDS011;67235;45.638;11.714;2023-07-29T12:23:09;9.27;;;4.00;;
78027;SDS011;67235;45.638;11.714;2023-07-29T12:25:37;8.05;;;3.50;;
78027;SDS011;67235;45.638;11.714;2023-07-29T12:28:07;7.55;;;4.30;;
78027;SDS011;67235;45.638;11.714;2023-07-29T12:30:32;7.43;;;4.03;;
78027;SDS011;67235;45.638;11.714;2023-07-29T12:32:59;6.38;;;3.45;;
78027;SDS011;67235;45.638;11.714;2023-07-29T12:35:45;7.07;;;4.00;;
78027;SDS011;67235;45.638;11.714;2023-07-29T12:38:21;6.97;;;3.90;;
78027;SDS011;67235;45.638;11.714;2023-07-29T12:40:47;6.20;;;3.22;;
78027;SDS011;67235;45.638;11.714;2023-07-29T12:43:17;9.07;;;3.88;;
78027;SDS011;67235;45.638;11.714;2023-07-29T12:45:45;8.63;;;3.90;;
78027;SDS011;67235;45.638;11.714;2023-07-29T12:48:11;6.50;;;3.70;;
78027;SDS011;67235;45.638;11.714;2023-07-29T12:50:37;7.05;;;4.00;;
78027;SDS011;67235;45.638;11.714;2023-07-29T12:53:05;6.32;;;3.90;;
78027;SDS011;67235;45.638;11.714;2023-07-29T12:55:31;7.47;;;4.00;;
78027;SDS011;67235;45.638;11.714;2023-07-29T12:57:58;7.90;;;4.00;;
78027;SDS011;67235;45.638;11.714;2023-07-29T13:00:25;6.85;;;3.80;;
78027;SDS011;67235;45.638;11.714;2023-07-29T13:02:50;8.73;;;4.65;;
78027;SDS011;67235;45.638;11.714;2023-07-29T13:05:16;10.07;;;4.07;;
78027;SDS011;67235;45.638;11.714;2023-07-29T13:07:43;6.73;;;3.83;;
78027;SDS011;67235;45.638;11.714;2023-07-29T13:10:10;8.18;;;4.72;;
78027;SDS011;67235;45.638;11.714;2023-07-29T13:12:37;6.90;;;4.10;;
78027;SDS011;67235;45.638;11.714;2023-07-29T13:15:03;6.95;;;3.80;;
78027;SDS011;67235;45.638;11.714;2023-07-29T13:17:29;6.00;;;3.90;;
78027;SDS011;67235;45.638;11.714;2023-07-29T13:19:55;6.77;;;4.53;;
78027;SDS011;67235;45.638;11.714;2023-07-29T13:22:21;7.93;;;4.20;;
78027;SDS011;67235;45.638;11.714;2023-07-29T13:24:47;7.47;;;4.22;;
78027;SDS011;67235;45.638;11.714;2023-07-29T13:27:13;8.07;;;4.53;;
78027;SDS011;67235;45.638;11.714;2023-07-29T13:29:39;8.30;;;4.22;;
78027;SDS011;67235;45.638;11.714;2023-07-29T13:32:05;5.82;;;3.70;;
78027;SDS011;67235;45.638;11.714;2023-07-29T13:34:34;6.00;;;3.80;;
78027;SDS011;67235;45.638;11.714;2023-07-29T13:37:02;7.22;;;4.25;;
78027;SDS011;67235;45.638;11.714;2023-07-29T13:39:30;6.43;;;4.22;;
78027;SDS011;67235;45.638;11.714;2023-07-29T13:41:56;7.63;;;4.22;;
78027;SDS011;67235;45.638;11.714;2023-07-29T13:44:22;8.80;;;4.78;;
78027;SDS011;67235;45.638;11.714;2023-07-29T13:46:48;7.47;;;3.80;;
78027;SDS011;67235;45.638;11.714;2023-07-29T13:49:14;9.15;;;4.13;;
78027;SDS011;67235;45.638;11.714;2023-07-29T13:51:40;8.18;;;4.15;;
78027;SDS011;67235;45.638;11.714;2023-07-29T13:54:07;10.07;;;4.10;;
78027;SDS011;67235;45.638;11.714;2023-07-29T13:56:33;7.17;;;4.07;;
78027;SDS011;67235;45.638;11.714;2023-07-29T13:58:59;9.45;;;4.00;;
78027;SDS011;67235;45.638;11.714;2023-07-29T14:01:25;9.48;;;4.18;;
78027;SDS011;67235;45.638;11.714;2023-07-29T14:03:51;6.77;;;4.23;;
78027;SDS011;67235;45.638;11.714;2023-07-29T14:06:17;7.53;;;4.25;;
78027;SDS011;67235;45.638;11.714;2023-07-29T14:08:43;8.10;;;4.20;;
78027;SDS011;67235;45.638;11.714;2023-07-29T14:11:09;6.10;;;3.77;;
78027;SDS011;67235;45.638;11.714;2023-07-29T14:13:35;7.38;;;3.95;;
78027;SDS011;67235;45.638;11.714;2023-07-29T14:16:01;6.32;;;3.80;;
78027;SDS011;67235;45.638;11.714;2023-07-29T14:18:30;7.50;;;4.10;;
78027;SDS011;67235;45.638;11.714;2023-07-29T14:20:56;6.65;;;3.80;;
78027;SDS011;67235;45.638;11.714;2023-07-29T14:23:22;7.97;;;4.00;;
78027;SDS011;67235;45.638;11.714;2023-07-29T14:25:48;10.88;;;4.00;;
78027;SDS011;67235;45.638;11.714;2023-07-29T14:28:13;6.28;;;3.95;;
78027;SDS011;67235;45.638;11.714;2023-07-29T14:30:39;7.30;;;4.10;;
78027;SDS011;67235;45.638;11.714;2023-07-29T14:33:06;7.55;;;4.68;;
78027;SDS011;67235;45.638;11.714;2023-07-29T14:35:32;9.68;;;4.50;;
78027;SDS011;67235;45.638;11.714;2023-07-29T14:37:58;9.80;;;4.70;;
78027;SDS011;67235;45.638;11.714;2023-07-29T14:40:24;7.35;;;4.10;;
78027;SDS011;67235;45.638;11.714;2023-07-29T14:42:50;7.10;;;4.10;;